createdAt,value
2019-01-25T00:05:19.501Z,-0.61
2019-01-25T00:11:25.235Z,-0.63
2019-01-25T00:17:30.920Z,-0.58
2019-01-25T00:23:36.611Z,-0.56
2019-01-25T00:29:42.314Z,-0.52
2019-01-25T00:35:48.105Z,-0.47
2019-01-25T00:41:53.950Z,-0.57
2019-01-25T00:47:59.786Z,-0.73
2019-01-25T00:54:06.099Z,-0.63
2019-01-25T01:00:17.437Z,-0.60
2019-01-25T01:06:23.374Z,-0.55
2019-01-25T01:12:29.080Z,-0.75
2019-01-25T01:18:35.134Z,-0.65
2019-01-25T01:24:40.954Z,-0.59
2019-01-25T01:30:46.641Z,-0.60
2019-01-25T01:36:52.400Z,-0.55
2019-01-25T01:42:58.072Z,-0.58
2019-01-25T01:49:04.011Z,-0.66
2019-01-25T01:55:10.341Z,-0.66
2019-01-25T02:01:16.127Z,-0.60
2019-01-25T02:07:21.904Z,-0.59
2019-01-25T02:13:27.734Z,-0.57
2019-01-25T02:19:33.414Z,-0.52
2019-01-25T02:25:39.137Z,-0.45
2019-01-25T02:31:44.876Z,-0.44
2019-01-25T02:37:50.988Z,-0.43
2019-01-25T02:43:56.652Z,-0.47
2019-01-25T02:50:02.463Z,-0.51
2019-01-25T02:56:08.486Z,-0.53
2019-01-25T03:02:14.456Z,-0.51
2019-01-25T03:08:20.502Z,-0.55
2019-01-25T03:14:26.218Z,-0.51
2019-01-25T03:20:32.053Z,-0.54
2019-01-25T03:26:38.345Z,-0.49
2019-01-25T03:32:44.070Z,-0.47
2019-01-25T03:38:49.781Z,-0.48
2019-01-25T03:44:55.465Z,-0.38
2019-01-25T03:51:01.172Z,-0.42
2019-01-25T03:57:06.979Z,-0.38
2019-01-25T04:03:12.857Z,-0.40
2019-01-25T04:09:22.505Z,-0.39
2019-01-25T04:15:31.608Z,-0.32
2019-01-25T04:21:37.319Z,-0.30
2019-01-25T04:27:43.121Z,-0.32
2019-01-25T04:33:48.830Z,-0.17
2019-01-25T04:39:54.650Z,-0.03
2019-01-25T04:46:00.508Z,0.01
2019-01-25T04:52:13.834Z,0.07
2019-01-25T04:58:20.623Z,0.09
2019-01-25T05:04:28.329Z,0.08
2019-01-25T05:10:34.210Z,0.02
2019-01-25T05:16:40.159Z,0.03
2019-01-25T05:22:46.075Z,-0.21
2019-01-25T05:28:52.033Z,-0.23
2019-01-25T05:34:58.014Z,-0.12
2019-01-25T05:41:04.069Z,-0.14
2019-01-25T05:47:12.027Z,-0.21
2019-01-25T05:53:18.004Z,-0.21
2019-01-25T05:59:26.190Z,-0.25
2019-01-25T06:05:32.221Z,-0.19
2019-01-25T06:11:39.359Z,-0.17
2019-01-25T06:17:45.240Z,-0.10
2019-01-25T06:23:55.025Z,-0.09
2019-01-25T06:30:00.818Z,0.11
2019-01-25T06:36:08.370Z,0.20
2019-01-25T06:42:14.371Z,0.25
2019-01-25T06:48:20.875Z,0.31
2019-01-25T06:54:26.838Z,0.33
2019-01-25T07:00:34.932Z,0.31
2019-01-25T07:06:40.760Z,0.16
2019-01-25T07:12:46.651Z,0.13
2019-01-25T07:18:52.436Z,0.11
2019-01-25T07:24:58.265Z,0.09
2019-01-25T07:31:04.114Z,0.12
2019-01-25T07:37:09.867Z,0.06
2019-01-25T07:43:15.855Z,0.07
2019-01-25T07:49:21.809Z,0.11
2019-01-25T07:55:33.768Z,0.24
2019-01-25T08:01:40.144Z,0.23
2019-01-25T08:07:45.867Z,0.16
2019-01-25T08:13:51.769Z,0.19
2019-01-25T08:19:59.218Z,0.10
2019-01-25T08:26:05.463Z,0.12
2019-01-25T08:32:11.316Z,0.34
2019-01-25T08:38:17.585Z,0.52
2019-01-25T08:44:23.551Z,0.60
2019-01-25T08:50:29.416Z,0.52
2019-01-25T08:56:35.425Z,0.59
2019-01-25T09:02:41.599Z,0.72
2019-01-25T09:08:47.822Z,0.82
2019-01-25T09:14:54.088Z,0.97
2019-01-25T09:20:59.999Z,1.00
2019-01-25T09:27:06.061Z,0.92
2019-01-25T09:33:11.891Z,0.94
2019-01-25T09:39:17.883Z,1.23
2019-01-25T09:45:23.870Z,1.25
2019-01-25T09:51:29.732Z,1.26
2019-01-25T09:57:35.871Z,1.43
2019-01-25T10:03:42.019Z,1.49
2019-01-25T10:09:47.894Z,1.58
2019-01-25T10:15:54.621Z,1.65
2019-01-25T10:22:00.666Z,1.73
2019-01-25T10:28:06.492Z,1.79
2019-01-25T10:34:12.502Z,1.88
2019-01-25T10:40:19.998Z,1.97
2019-01-25T10:46:26.114Z,1.99
2019-01-25T10:52:32.131Z,2.05
2019-01-25T10:58:37.910Z,2.19
2019-01-25T11:04:49.810Z,2.28
2019-01-25T11:10:55.730Z,2.45
2019-01-25T11:17:01.734Z,2.54
2019-01-25T11:23:07.577Z,2.51
2019-01-25T11:29:13.379Z,2.53
2019-01-25T11:35:19.500Z,2.59
2019-01-25T11:41:25.676Z,2.62
2019-01-25T11:47:31.551Z,2.74
2019-01-25T11:53:37.971Z,2.70
2019-01-25T11:59:44.451Z,2.68
2019-01-25T12:05:50.272Z,2.76
2019-01-25T12:11:56.046Z,2.81
2019-01-25T12:18:02.125Z,2.94
2019-01-25T12:24:08.386Z,3.16
2019-01-25T12:30:45.482Z,3.19
2019-01-25T12:36:51.160Z,3.24
2019-01-25T12:42:58.169Z,3.35
2019-01-25T12:49:04.005Z,3.40
2019-01-25T12:55:10.546Z,3.38
2019-01-25T13:01:17.814Z,3.50
2019-01-25T13:07:23.792Z,3.58
2019-01-25T13:13:31.701Z,3.66
2019-01-25T13:19:37.527Z,3.75
2019-01-25T13:25:47.295Z,3.81
2019-01-25T13:31:51.776Z,3.92
2019-01-25T13:37:57.716Z,3.92
2019-01-25T13:44:03.873Z,3.99
2019-01-25T13:50:13.116Z,3.99
2019-01-25T13:56:19.312Z,3.90
2019-01-25T14:02:25.557Z,3.91
2019-01-25T14:08:34.011Z,4.03
2019-01-25T14:14:40.249Z,3.94
2019-01-25T14:20:50.348Z,3.97
2019-01-25T14:26:56.128Z,4.02
2019-01-25T14:33:02.167Z,4.04
2019-01-25T14:39:09.964Z,3.99
2019-01-25T14:45:16.647Z,4.04
2019-01-25T14:51:22.558Z,4.01
2019-01-25T14:57:28.476Z,4.01
2019-01-25T15:03:36.345Z,4.01
2019-01-25T15:09:42.099Z,4.02
2019-01-25T15:15:48.467Z,4.00
2019-01-25T15:21:54.564Z,4.00
2019-01-25T15:28:03.915Z,3.98
2019-01-25T15:34:16.517Z,3.97
2019-01-25T15:40:24.345Z,3.97
2019-01-25T15:46:30.345Z,3.98
2019-01-25T15:52:38.142Z,3.94
2019-01-25T15:58:44.079Z,3.87
2019-01-25T16:04:49.939Z,3.80
2019-01-25T16:10:56.060Z,3.68
2019-01-25T16:17:02.145Z,3.57
2019-01-25T16:23:08.060Z,3.50
2019-01-25T16:29:14.193Z,3.47
2019-01-25T16:35:20.083Z,3.44
2019-01-25T16:41:26.410Z,3.34
2019-01-25T16:47:33.353Z,3.24
2019-01-25T16:53:39.258Z,3.16
2019-01-25T16:59:45.167Z,3.15
2019-01-25T17:05:51.200Z,3.19
2019-01-25T17:11:57.016Z,3.22
2019-01-25T17:18:02.812Z,3.22
2019-01-25T17:24:08.612Z,3.21
2019-01-25T17:30:27.139Z,3.24
2019-01-25T17:36:33.236Z,3.27
2019-01-25T17:42:39.023Z,3.26
2019-01-25T17:48:45.054Z,3.27
2019-01-25T17:54:50.984Z,3.23
2019-01-25T18:00:57.485Z,3.22
2019-01-25T18:07:03.576Z,3.25
2019-01-25T18:13:09.434Z,3.27
2019-01-25T18:19:15.510Z,3.20
2019-01-25T18:25:44.503Z,3.22
2019-01-25T18:31:50.315Z,3.24
2019-01-25T18:37:56.283Z,3.22
2019-01-25T18:44:02.124Z,3.22
2019-01-25T18:50:10.406Z,3.22
2019-01-25T18:56:21.110Z,3.21
2019-01-25T19:02:28.965Z,3.24
2019-01-25T19:08:34.804Z,3.23
2019-01-25T19:14:46.125Z,3.24
2019-01-25T19:20:54.445Z,3.23
2019-01-25T19:27:01.128Z,3.25
2019-01-25T19:33:07.623Z,3.27
2019-01-25T19:39:17.300Z,3.28
2019-01-25T19:45:25.505Z,3.27
2019-01-25T19:51:31.355Z,3.33
2019-01-25T19:57:37.137Z,3.35
2019-01-25T20:03:43.179Z,3.36
2019-01-25T20:09:54.267Z,3.36
2019-01-25T20:16:00.236Z,3.43
2019-01-25T20:22:06.872Z,3.46
2019-01-25T20:28:13.042Z,3.47
2019-01-25T20:34:21.756Z,3.48
2019-01-25T20:40:27.616Z,3.50
2019-01-25T20:46:33.602Z,3.55
2019-01-25T20:52:40.604Z,3.57
2019-01-25T20:58:48.026Z,3.59
2019-01-25T21:04:54.761Z,3.64
2019-01-25T21:11:04.868Z,3.70
2019-01-25T21:17:11.956Z,3.71
2019-01-25T21:23:21.712Z,3.71
2019-01-25T21:29:30.170Z,3.75
2019-01-25T21:35:36.167Z,3.80
2019-01-25T21:41:41.882Z,3.80
2019-01-25T21:47:47.907Z,3.80
2019-01-25T21:53:53.799Z,3.82
2019-01-25T21:59:59.669Z,3.86
2019-01-25T22:06:06.257Z,3.92
2019-01-25T22:12:12.133Z,3.95
2019-01-25T22:18:18.081Z,4.03
2019-01-25T22:24:23.888Z,4.09
2019-01-25T22:30:29.910Z,4.15
2019-01-25T22:36:35.724Z,4.12
2019-01-25T22:42:41.516Z,4.15
2019-01-25T22:48:47.273Z,4.18
2019-01-25T22:54:53.145Z,4.22
2019-01-25T23:01:12.026Z,4.27
2019-01-25T23:07:27.641Z,4.30
2019-01-25T23:13:33.363Z,4.39
2019-01-25T23:19:39.197Z,4.39
2019-01-25T23:25:45.280Z,4.45
2019-01-25T23:31:52.902Z,4.49
2019-01-25T23:37:59.006Z,4.55
2019-01-25T23:44:05.132Z,4.59
2019-01-25T23:50:13.370Z,4.63
2019-01-25T23:56:19.176Z,4.64
